createdAt,value
2023-01-17T00:01:42.839Z,2.25
2023-01-17T00:04:29.699Z,2.29
2023-01-17T00:07:15.079Z,2.18
2023-01-17T00:09:54.077Z,2.22
2023-01-17T00:12:21.137Z,2.15
2023-01-17T00:14:48.304Z,1.68
2023-01-17T00:17:15.365Z,2.06
2023-01-17T00:20:00.552Z,1.47
2023-01-17T00:22:47.356Z,1.80
2023-01-17T00:25:37.216Z,1.84
2023-01-17T00:28:04.295Z,1.76
2023-01-17T00:30:31.285Z,1.76
2023-01-17T00:32:57.940Z,1.88
2023-01-17T00:35:25.374Z,2.06
2023-01-17T00:38:05.400Z,2.14
2023-01-17T00:40:33.121Z,2.02
2023-01-17T00:43:18.273Z,2.01
2023-01-17T00:46:03.707Z,2.09
2023-01-17T00:48:49.225Z,2.10
2023-01-17T00:51:34.638Z,2.18
2023-01-17T00:54:19.703Z,2.00
2023-01-17T00:57:04.796Z,2.23
2023-01-17T00:59:50.186Z,1.88
2023-01-17T01:02:35.499Z,2.20
2023-01-17T01:05:21.270Z,2.16
2023-01-17T01:08:06.325Z,1.93
2023-01-17T01:10:51.713Z,1.69
2023-01-17T01:13:37.423Z,1.46
2023-01-17T01:16:23.113Z,1.89
2023-01-17T01:19:08.261Z,1.52
2023-01-17T01:21:53.525Z,1.40
2023-01-17T01:24:38.869Z,1.45
2023-01-17T01:27:24.345Z,1.78
2023-01-17T01:30:09.391Z,2.05
2023-01-17T01:32:54.555Z,2.22
2023-01-17T01:35:24.058Z,2.16
2023-01-17T01:37:50.892Z,2.02
2023-01-17T01:40:17.768Z,2.18
2023-01-17T01:42:55.352Z,2.18
2023-01-17T01:45:29.856Z,2.10
2023-01-17T01:48:20.210Z,2.35
2023-01-17T01:50:46.901Z,2.41
2023-01-17T01:53:13.541Z,2.59
2023-01-17T01:55:40.758Z,2.37
2023-01-17T01:58:13.373Z,2.41
2023-01-17T02:00:41.051Z,2.44
2023-01-17T02:03:13.468Z,2.39
2023-01-17T02:05:42.471Z,2.42
2023-01-17T02:08:11.608Z,2.28
2023-01-17T02:10:39.480Z,2.36
2023-01-17T02:13:06.488Z,2.23
2023-01-17T02:15:54.163Z,2.37
2023-01-17T02:18:51.729Z,2.22
2023-01-17T02:21:28.300Z,2.33
2023-01-17T02:24:07.241Z,2.46
2023-01-17T02:27:01.854Z,2.25
2023-01-17T02:29:28.228Z,2.22
2023-01-17T02:32:08.774Z,2.02
2023-01-17T02:34:44.578Z,1.97
2023-01-17T02:37:18.704Z,2.30
2023-01-17T02:39:54.461Z,2.28
2023-01-17T02:42:22.058Z,2.58
2023-01-17T02:44:48.807Z,2.58
2023-01-17T02:47:29.181Z,2.65
2023-01-17T02:50:12.834Z,2.64
2023-01-17T02:52:48.335Z,2.57
2023-01-17T02:55:23.947Z,2.65
2023-01-17T02:58:05.748Z,2.38
2023-01-17T03:00:32.360Z,2.45
2023-01-17T03:03:05.279Z,2.53
2023-01-17T03:05:36.560Z,2.54
2023-01-17T03:08:03.274Z,2.59
2023-01-17T03:10:33.829Z,2.61
2023-01-17T03:13:00.558Z,2.39
2023-01-17T03:15:27.230Z,2.40
2023-01-17T03:17:55.318Z,2.28
2023-01-17T03:20:22.750Z,2.49
2023-01-17T03:22:49.469Z,2.41
2023-01-17T03:25:16.683Z,2.60
2023-01-17T03:27:43.319Z,2.67
2023-01-17T03:30:10.416Z,2.76
2023-01-17T03:32:37.103Z,2.21
2023-01-17T03:35:03.844Z,2.19
2023-01-17T03:37:30.458Z,2.21
2023-01-17T03:39:57.168Z,2.17
2023-01-17T03:42:23.958Z,2.10
2023-01-17T03:44:50.551Z,2.22
2023-01-17T03:47:17.156Z,2.32
2023-01-17T03:49:43.788Z,2.31
2023-01-17T03:52:10.435Z,2.47
2023-01-17T03:54:37.143Z,2.37
2023-01-17T03:57:03.793Z,2.64
2023-01-17T03:59:30.363Z,2.83
2023-01-17T04:01:57.107Z,2.76
2023-01-17T04:04:23.844Z,2.64
2023-01-17T04:06:50.503Z,2.65
2023-01-17T04:09:17.088Z,2.68
2023-01-17T04:11:43.714Z,2.70
2023-01-17T04:14:10.437Z,2.45
2023-01-17T04:16:37.189Z,2.42
2023-01-17T04:19:03.863Z,2.68
2023-01-17T04:21:30.492Z,2.73
2023-01-17T04:23:57.171Z,2.48
2023-01-17T04:26:23.798Z,2.70
2023-01-17T04:28:50.518Z,2.69
2023-01-17T04:31:17.490Z,2.69
2023-01-17T04:33:44.257Z,2.71
2023-01-17T04:36:10.914Z,2.84
2023-01-17T04:38:37.600Z,2.79
2023-01-17T04:41:04.331Z,2.70
2023-01-17T04:43:30.968Z,2.60
2023-01-17T04:45:58.201Z,2.51
2023-01-17T04:48:24.987Z,2.63
2023-01-17T04:50:51.647Z,2.77
2023-01-17T04:53:18.441Z,2.77
2023-01-17T04:55:46.274Z,2.90
2023-01-17T04:58:12.901Z,2.81
2023-01-17T05:00:39.557Z,2.93
2023-01-17T05:03:07.132Z,2.73
2023-01-17T05:05:33.760Z,2.86
2023-01-17T05:08:00.363Z,2.79
2023-01-17T05:10:27.043Z,2.80
2023-01-17T05:12:57.442Z,2.87
2023-01-17T05:15:24.038Z,2.82
2023-01-17T05:17:51.864Z,3.03
2023-01-17T05:20:19.117Z,3.07
2023-01-17T05:22:47.368Z,3.25
2023-01-17T05:25:14.051Z,3.26
2023-01-17T05:27:40.788Z,3.08
2023-01-17T05:30:07.876Z,2.92
2023-01-17T05:32:34.539Z,2.58
2023-01-17T05:35:02.543Z,2.63
2023-01-17T05:37:29.132Z,2.94
2023-01-17T05:39:55.824Z,2.98
2023-01-17T05:42:22.526Z,2.60
2023-01-17T05:44:49.159Z,2.76
2023-01-17T05:47:15.757Z,2.77
2023-01-17T05:49:45.098Z,3.24
2023-01-17T05:52:12.604Z,3.09
2023-01-17T05:54:39.347Z,3.18
2023-01-17T05:57:06.073Z,3.08
2023-01-17T05:59:37.353Z,2.97
2023-01-17T06:02:04.254Z,2.90
2023-01-17T06:04:30.938Z,2.80
2023-01-17T06:06:57.606Z,2.76
2023-01-17T06:09:24.252Z,2.84
2023-01-17T06:11:50.891Z,3.19
2023-01-17T06:14:17.529Z,3.17
2023-01-17T06:16:44.152Z,3.10
2023-01-17T06:19:10.771Z,2.98
2023-01-17T06:21:37.494Z,3.10
2023-01-17T06:24:04.512Z,2.99
2023-01-17T06:26:31.326Z,3.27
2023-01-17T06:28:57.975Z,3.03
2023-01-17T06:31:24.653Z,2.95
2023-01-17T06:33:51.386Z,2.80
2023-01-17T06:36:18.049Z,3.19
2023-01-17T06:38:44.691Z,3.36
2023-01-17T06:41:11.332Z,3.18
2023-01-17T06:43:37.950Z,3.18
2023-01-17T06:46:04.739Z,2.84
2023-01-17T06:48:31.419Z,2.67
2023-01-17T06:50:58.363Z,2.52
2023-01-17T06:53:24.937Z,2.52
2023-01-17T06:55:52.640Z,2.45
2023-01-17T06:58:19.327Z,2.51
2023-01-17T07:00:46.090Z,2.54
2023-01-17T07:03:17.568Z,2.63
2023-01-17T07:05:44.232Z,2.48
2023-01-17T07:08:10.964Z,2.42
2023-01-17T07:10:37.608Z,2.60
2023-01-17T07:13:04.247Z,2.85
2023-01-17T07:15:30.883Z,3.14
2023-01-17T07:17:57.519Z,2.82
2023-01-17T07:20:24.251Z,3.00
2023-01-17T07:22:50.986Z,3.21
2023-01-17T07:25:17.935Z,3.16
2023-01-17T07:27:44.623Z,3.34
2023-01-17T07:30:11.957Z,3.52
2023-01-17T07:32:38.842Z,3.79
2023-01-17T07:35:06.734Z,3.79
2023-01-17T07:37:33.354Z,4.07
2023-01-17T07:40:02.519Z,4.52
2023-01-17T07:42:29.290Z,4.37
2023-01-17T07:44:56.034Z,4.49
2023-01-17T07:47:24.775Z,4.66
2023-01-17T07:49:51.416Z,4.42
2023-01-17T07:52:18.348Z,4.50
2023-01-17T07:54:45.132Z,4.49
2023-01-17T07:57:12.643Z,4.69
2023-01-17T07:59:39.297Z,4.33
2023-01-17T08:02:06.177Z,4.67
2023-01-17T08:04:35.262Z,4.69
2023-01-17T08:07:02.143Z,4.77
2023-01-17T08:09:28.749Z,4.88
2023-01-17T08:11:55.489Z,5.07
2023-01-17T08:14:22.230Z,4.95
2023-01-17T08:16:48.979Z,5.08
2023-01-17T08:19:16.757Z,5.37
2023-01-17T08:21:43.431Z,5.48
2023-01-17T08:24:13.815Z,5.51
2023-01-17T08:26:40.738Z,5.40
2023-01-17T08:29:07.453Z,5.71
2023-01-17T08:31:34.845Z,5.87
2023-01-17T08:34:01.535Z,5.76
2023-01-17T08:36:28.916Z,5.96
2023-01-17T08:38:55.698Z,5.85
2023-01-17T08:41:22.509Z,6.27
2023-01-17T08:43:49.460Z,6.97
2023-01-17T08:46:16.219Z,7.43
2023-01-17T08:48:43.131Z,7.18
2023-01-17T08:51:10.178Z,7.35
2023-01-17T08:53:36.875Z,7.50
2023-01-17T08:56:04.269Z,7.66
2023-01-17T08:58:31.330Z,8.00
2023-01-17T09:01:02.954Z,8.46
2023-01-17T09:03:30.642Z,8.38
2023-01-17T09:06:02.292Z,8.63
2023-01-17T09:08:28.964Z,8.88
2023-01-17T09:10:55.607Z,8.94
2023-01-17T09:13:22.252Z,9.70
2023-01-17T09:15:48.933Z,9.85
2023-01-17T09:18:15.624Z,10.17
2023-01-17T09:20:42.255Z,9.91
2023-01-17T09:23:08.915Z,10.01
2023-01-17T09:25:35.521Z,10.00
2023-01-17T09:28:02.168Z,9.69
2023-01-17T09:30:28.861Z,9.94
2023-01-17T09:32:55.601Z,10.00
2023-01-17T09:35:22.171Z,9.62
2023-01-17T09:37:50.647Z,9.71
2023-01-17T09:40:19.641Z,10.31
2023-01-17T09:42:46.575Z,10.66
2023-01-17T09:45:16.430Z,10.70
2023-01-17T09:47:47.688Z,11.10
2023-01-17T09:50:23.431Z,10.99
2023-01-17T09:52:50.185Z,11.06
2023-01-17T09:55:17.281Z,11.11
2023-01-17T09:57:46.915Z,11.10
2023-01-17T10:00:44.023Z,11.21
2023-01-17T10:03:28.889Z,11.62
2023-01-17T10:06:22.888Z,11.44
2023-01-17T10:09:19.923Z,11.03
2023-01-17T10:11:49.265Z,11.08
2023-01-17T10:14:51.270Z,11.63
2023-01-17T10:17:45.389Z,11.79
2023-01-17T10:20:34.934Z,12.20
2023-01-17T10:23:04.799Z,12.18
2023-01-17T10:25:43.004Z,12.23
2023-01-17T10:28:14.071Z,11.87
2023-01-17T10:30:48.932Z,11.83
2023-01-17T10:33:22.433Z,12.24
2023-01-17T10:36:04.224Z,12.38
2023-01-17T10:38:35.949Z,11.93
2023-01-17T10:41:14.456Z,11.82
2023-01-17T10:43:49.846Z,11.87
2023-01-17T10:46:19.599Z,12.06
2023-01-17T10:48:47.286Z,12.07
2023-01-17T10:51:16.587Z,11.85
2023-01-17T10:54:53.820Z,11.60
2023-01-17T10:57:24.769Z,11.84
2023-01-17T10:59:52.140Z,11.24
2023-01-17T11:02:26.055Z,11.15
2023-01-17T11:04:54.635Z,11.49
2023-01-17T11:07:28.599Z,11.46
2023-01-17T11:09:56.586Z,11.32
2023-01-17T11:12:33.968Z,11.08
2023-01-17T11:15:09.482Z,10.51
2023-01-17T11:17:43.764Z,10.93
2023-01-17T11:20:22.832Z,11.19
2023-01-17T11:23:04.169Z,11.19
2023-01-17T11:25:33.965Z,11.20
2023-01-17T11:28:19.172Z,11.09
2023-01-17T11:30:59.065Z,10.81
2023-01-17T11:33:45.067Z,11.14
2023-01-17T11:36:16.248Z,11.15
2023-01-17T11:39:02.928Z,11.36
2023-01-17T11:41:33.909Z,11.42
2023-01-17T11:44:00.929Z,11.56
2023-01-17T11:46:30.504Z,11.62
2023-01-17T11:48:59.670Z,11.37
2023-01-17T11:51:34.121Z,11.53
2023-01-17T11:54:10.742Z,11.46
2023-01-17T11:56:37.523Z,11.45
2023-01-17T11:59:13.144Z,11.64
2023-01-17T12:01:47.319Z,12.03
2023-01-17T12:04:23.009Z,11.96
2023-01-17T12:07:28.754Z,12.48
2023-01-17T12:10:08.228Z,12.42
2023-01-17T12:12:59.623Z,12.28
2023-01-17T12:15:42.168Z,12.49
2023-01-17T12:18:19.131Z,12.47
2023-01-17T12:20:52.242Z,12.47
2023-01-17T12:23:51.025Z,12.35
2023-01-17T12:26:23.930Z,12.27
2023-01-17T12:28:59.219Z,12.27
2023-01-17T12:31:46.327Z,12.15
2023-01-17T12:34:27.360Z,12.32
2023-01-17T12:36:55.342Z,12.13
2023-01-17T12:39:26.102Z,12.07
2023-01-17T12:42:20.539Z,11.89
2023-01-17T12:44:57.951Z,11.82
2023-01-17T12:47:24.707Z,11.80
2023-01-17T12:49:57.956Z,11.56
2023-01-17T12:52:43.298Z,11.66
2023-01-17T12:55:14.338Z,11.76
2023-01-17T12:57:43.197Z,11.79
2023-01-17T13:00:23.716Z,11.60
2023-01-17T13:03:32.865Z,11.60
2023-01-17T13:05:59.540Z,11.58
2023-01-17T13:08:36.322Z,11.64
2023-01-17T13:11:39.078Z,11.47
2023-01-17T13:14:08.320Z,11.44
2023-01-17T13:16:42.250Z,11.14
2023-01-17T13:19:44.020Z,11.09
2023-01-17T13:22:17.384Z,10.83
2023-01-17T13:24:55.701Z,10.90
2023-01-17T13:27:59.869Z,11.19
2023-01-17T13:30:43.443Z,11.27
2023-01-17T13:33:28.258Z,11.39
2023-01-17T13:36:01.895Z,11.37
2023-01-17T13:38:55.211Z,11.23
2023-01-17T13:41:38.707Z,11.09
2023-01-17T13:44:24.587Z,11.04
2023-01-17T13:47:32.041Z,10.89
2023-01-17T13:49:59.396Z,10.64
2023-01-17T13:52:26.023Z,10.56
2023-01-17T13:54:56.414Z,10.47
2023-01-17T13:57:28.548Z,10.67
2023-01-17T13:59:56.925Z,10.49
2023-01-17T14:02:32.642Z,10.53
2023-01-17T14:05:05.265Z,10.37
2023-01-17T14:07:31.926Z,10.22
2023-01-17T14:09:58.548Z,9.93
2023-01-17T14:12:28.057Z,9.96
2023-01-17T14:14:56.693Z,9.95
2023-01-17T14:17:25.514Z,9.79
2023-01-17T14:20:02.869Z,9.84
2023-01-17T14:22:33.414Z,9.71
2023-01-17T14:25:03.120Z,9.49
2023-01-17T14:27:34.718Z,9.79
2023-01-17T14:30:02.633Z,9.69
2023-01-17T14:32:33.582Z,9.81
2023-01-17T14:35:00.307Z,9.66
2023-01-17T14:37:32.929Z,9.62
2023-01-17T14:40:00.230Z,9.70
2023-01-17T14:42:30.759Z,9.57
2023-01-17T14:45:05.561Z,9.69
2023-01-17T14:47:34.242Z,9.53
2023-01-17T14:50:36.862Z,9.30
2023-01-17T14:53:18.282Z,9.33
2023-01-17T14:55:47.897Z,9.28
2023-01-17T14:58:17.908Z,9.45
2023-01-17T15:00:44.939Z,9.39
2023-01-17T15:03:14.486Z,9.38
2023-01-17T15:05:41.922Z,9.31
2023-01-17T15:08:13.965Z,9.22
2023-01-17T15:10:46.755Z,9.32
2023-01-17T15:13:13.990Z,9.37
2023-01-17T15:15:42.833Z,9.12
2023-01-17T15:18:15.140Z,9.15
2023-01-17T15:20:42.285Z,9.12
2023-01-17T15:23:18.291Z,8.84
2023-01-17T15:25:48.767Z,8.75
2023-01-17T15:28:15.476Z,8.81
2023-01-17T15:31:09.228Z,8.75
2023-01-17T15:33:43.978Z,8.78
2023-01-17T15:36:17.169Z,8.83
2023-01-17T15:38:49.544Z,8.66
2023-01-17T15:41:16.392Z,8.82
2023-01-17T15:43:43.399Z,8.93
2023-01-17T15:46:21.249Z,8.79
2023-01-17T15:48:48.203Z,8.63
2023-01-17T15:51:16.272Z,8.52
2023-01-17T15:53:43.020Z,8.75
2023-01-17T15:56:31.209Z,8.50
2023-01-17T15:59:20.650Z,8.69
2023-01-17T16:01:57.112Z,8.52
2023-01-17T16:04:26.977Z,8.21
2023-01-17T16:06:53.577Z,8.56
2023-01-17T16:09:23.628Z,8.55
2023-01-17T16:11:50.285Z,8.48
2023-01-17T16:14:17.783Z,7.99
2023-01-17T16:16:53.377Z,7.91
2023-01-17T16:19:21.468Z,7.86
2023-01-17T16:21:48.538Z,8.13
2023-01-17T16:24:15.428Z,8.06
2023-01-17T16:26:42.173Z,7.36
2023-01-17T16:29:10.230Z,7.39
2023-01-17T16:31:36.920Z,8.07
2023-01-17T16:34:03.639Z,8.10
2023-01-17T16:36:30.389Z,7.99
2023-01-17T16:38:57.127Z,7.80
2023-01-17T16:41:23.784Z,8.13
2023-01-17T16:43:58.325Z,8.08
2023-01-17T16:46:26.048Z,8.01
2023-01-17T16:48:53.035Z,7.72
2023-01-17T16:51:19.580Z,7.80
2023-01-17T16:53:46.228Z,7.87
2023-01-17T16:56:14.746Z,7.97
2023-01-17T16:58:41.460Z,7.71
2023-01-17T17:01:12.237Z,7.51
2023-01-17T17:03:38.995Z,7.40
2023-01-17T17:06:05.828Z,7.37
2023-01-17T17:08:33.950Z,7.44
2023-01-17T17:11:13.161Z,7.33
2023-01-17T17:13:44.025Z,7.26
2023-01-17T17:16:18.388Z,7.29
2023-01-17T17:18:45.243Z,6.93
2023-01-17T17:21:12.624Z,6.72
2023-01-17T17:23:39.548Z,6.88
2023-01-17T17:26:06.347Z,6.45
2023-01-17T17:28:33.054Z,6.55
2023-01-17T17:31:07.655Z,6.46
2023-01-17T17:33:35.057Z,6.72
2023-01-17T17:36:03.516Z,6.20
2023-01-17T17:38:30.171Z,6.45
2023-01-17T17:41:07.807Z,6.97
2023-01-17T17:43:41.272Z,7.02
2023-01-17T17:46:08.140Z,6.86
2023-01-17T17:48:35.699Z,6.85
2023-01-17T17:51:02.444Z,6.82
2023-01-17T17:53:29.120Z,6.36
2023-01-17T17:55:56.136Z,6.63
2023-01-17T17:58:23.185Z,6.93
2023-01-17T18:00:50.884Z,7.05
2023-01-17T18:03:17.553Z,6.78
2023-01-17T18:05:46.837Z,6.42
2023-01-17T18:08:13.581Z,6.56
2023-01-17T18:10:41.038Z,6.21
2023-01-17T18:13:07.786Z,5.65
2023-01-17T18:15:34.428Z,5.78
2023-01-17T18:18:01.084Z,6.36
2023-01-17T18:20:27.827Z,6.24
2023-01-17T18:22:54.490Z,6.21
2023-01-17T18:25:21.148Z,6.07
2023-01-17T18:27:47.979Z,5.97
2023-01-17T18:30:14.750Z,6.25
2023-01-17T18:32:42.731Z,5.92
2023-01-17T18:35:09.692Z,6.13
2023-01-17T18:37:36.283Z,5.91
2023-01-17T18:40:03.050Z,6.22
2023-01-17T18:42:30.140Z,5.73
2023-01-17T18:44:56.782Z,5.72
2023-01-17T18:47:23.841Z,5.84
2023-01-17T18:49:53.715Z,5.69
2023-01-17T18:52:20.924Z,5.58
2023-01-17T18:54:47.754Z,5.77
2023-01-17T18:57:14.419Z,5.44
2023-01-17T18:59:42.167Z,5.80
2023-01-17T19:02:09.562Z,5.63
2023-01-17T19:04:37.796Z,5.77
2023-01-17T19:07:04.507Z,5.97
2023-01-17T19:09:32.161Z,6.14
2023-01-17T19:12:00.060Z,5.84
2023-01-17T19:14:26.859Z,6.16
2023-01-17T19:16:53.589Z,5.85
2023-01-17T19:19:20.209Z,6.22
2023-01-17T19:21:46.847Z,6.68
2023-01-17T19:24:14.287Z,7.10
2023-01-17T19:26:41.871Z,7.28
2023-01-17T19:29:08.733Z,6.97
2023-01-17T19:31:43.156Z,6.75
2023-01-17T19:34:10.297Z,6.58
2023-01-17T19:36:37.747Z,7.03
2023-01-17T19:39:06.515Z,7.13
2023-01-17T19:41:34.447Z,7.20
2023-01-17T19:44:03.289Z,7.39
2023-01-17T19:46:29.991Z,8.11
2023-01-17T19:48:57.045Z,8.48
2023-01-17T19:51:24.487Z,8.88
2023-01-17T19:53:51.395Z,9.47
2023-01-17T19:56:20.072Z,9.63
2023-01-17T19:58:46.963Z,9.93
2023-01-17T20:01:32.623Z,9.97
2023-01-17T20:04:00.114Z,10.00
2023-01-17T20:06:28.977Z,10.36
2023-01-17T20:08:55.861Z,10.39
2023-01-17T20:11:23.711Z,10.36
2023-01-17T20:13:55.126Z,10.22
2023-01-17T20:16:22.230Z,10.28
2023-01-17T20:18:49.377Z,10.32
2023-01-17T20:21:17.643Z,10.35
2023-01-17T20:23:46.922Z,10.41
2023-01-17T20:26:14.764Z,10.30
2023-01-17T20:28:42.230Z,10.45
2023-01-17T20:31:12.710Z,10.51
2023-01-17T20:33:43.192Z,10.77
2023-01-17T20:36:14.919Z,11.00
2023-01-17T20:38:45.089Z,10.74
2023-01-17T20:41:24.689Z,10.96
2023-01-17T20:43:55.871Z,10.84
2023-01-17T20:46:23.934Z,10.93
2023-01-17T20:48:51.853Z,11.07
2023-01-17T20:51:18.726Z,11.05
2023-01-17T20:53:46.057Z,10.86
2023-01-17T20:56:14.011Z,10.93
2023-01-17T20:58:40.979Z,10.99
2023-01-17T21:01:11.453Z,10.79
2023-01-17T21:03:38.793Z,10.62
2023-01-17T21:06:09.057Z,10.94
2023-01-17T21:08:37.130Z,11.01
2023-01-17T21:11:04.838Z,10.96
2023-01-17T21:13:31.830Z,10.63
2023-01-17T21:15:58.582Z,10.62
2023-01-17T21:18:25.872Z,10.84
2023-01-17T21:20:52.717Z,10.99
2023-01-17T21:23:20.179Z,10.75
2023-01-17T21:25:55.500Z,10.63
2023-01-17T21:28:26.355Z,10.89
2023-01-17T21:30:53.375Z,11.08
2023-01-17T21:33:20.635Z,10.32
2023-01-17T21:35:47.444Z,10.38
2023-01-17T21:38:14.403Z,10.61
2023-01-17T21:40:41.615Z,10.46
2023-01-17T21:43:08.255Z,10.74
2023-01-17T21:45:38.691Z,10.83
2023-01-17T21:48:06.778Z,10.81
2023-01-17T21:50:34.020Z,10.87
2023-01-17T21:53:00.843Z,11.14
2023-01-17T21:55:45.954Z,11.00
2023-01-17T21:58:35.169Z,11.05
2023-01-17T22:01:11.171Z,10.86
2023-01-17T22:03:37.955Z,10.41
2023-01-17T22:06:04.964Z,10.19
2023-01-17T22:08:37.894Z,10.22
2023-01-17T22:11:08.728Z,9.92
2023-01-17T22:13:35.710Z,10.12
2023-01-17T22:16:03.647Z,10.79
2023-01-17T22:18:30.732Z,10.70
2023-01-17T22:20:57.366Z,10.89
2023-01-17T22:23:24.032Z,10.97
2023-01-17T22:25:50.698Z,10.84
2023-01-17T22:28:17.414Z,11.07
2023-01-17T22:30:44.159Z,10.99
2023-01-17T22:33:10.867Z,11.08
2023-01-17T22:35:37.514Z,11.29
2023-01-17T22:38:04.239Z,11.37
2023-01-17T22:40:32.664Z,11.30
2023-01-17T22:42:59.537Z,11.13
2023-01-17T22:45:27.341Z,11.07
2023-01-17T22:47:54.112Z,11.21
2023-01-17T22:50:20.780Z,11.43
2023-01-17T22:52:47.396Z,11.20
2023-01-17T22:55:14.223Z,11.15
2023-01-17T22:57:43.956Z,11.04
2023-01-17T23:00:14.582Z,10.81
2023-01-17T23:02:41.913Z,11.20
2023-01-17T23:05:09.974Z,10.84
2023-01-17T23:07:43.764Z,11.27
2023-01-17T23:10:33.915Z,11.15
2023-01-17T23:13:00.565Z,11.42
2023-01-17T23:15:46.054Z,11.33
2023-01-17T23:18:31.378Z,11.15
2023-01-17T23:20:58.079Z,11.25
2023-01-17T23:23:24.653Z,11.31
2023-01-17T23:25:51.351Z,11.27
2023-01-17T23:28:20.927Z,11.47
2023-01-17T23:30:48.177Z,11.37
2023-01-17T23:33:16.076Z,11.10
2023-01-17T23:35:44.325Z,11.50
2023-01-17T23:38:29.025Z,11.55
2023-01-17T23:41:24.768Z,11.19
2023-01-17T23:43:58.128Z,11.29
2023-01-17T23:46:25.466Z,11.35
2023-01-17T23:48:52.263Z,11.33
2023-01-17T23:51:19.003Z,11.48
2023-01-17T23:53:45.704Z,11.59
2023-01-17T23:56:17.353Z,11.24
2023-01-17T23:58:44.232Z,11.30
